Terminal Aerodrome Forecast
Issued by NWS Tampa Bay Area, FL

Home | Current Version | Previous Version | Text Only | Print | Product List | Glossary On
Versions: 1 2 3 4 5 6 7 8 9 10 11 12 13 14 15 16
000
FTUS42 KTBW 041131
TAFFMY
TAF
KFMY 041131Z 0412/0512 VRB04KT P6SM SCT040 SCT250
     FM041800 32006KT P6SM VCTS SCT030CB SCT250
     FM042200 30007KT P6SM SCT040 BKN250
     FM050300 VRB03KT P6SM SCT040 SCT250=

USA.gov is the U.S. government's official web portal to all federal, state and local government web resources and services.